sensor_id;sensor_type;location;lat;lon;timestamp;pressure;altitude;pressure_sealevel;temperature;humidity
11108;BME280;5607;48.302;14.294;2023-02-11T00:00:44;100507.22;;;-0.69;98.60
11108;BME280;5607;48.302;14.294;2023-02-11T00:03:30;100505.50;;;-0.67;98.01
11108;BME280;5607;48.302;14.294;2023-02-11T00:06:17;100502.88;;;-0.63;97.05
11108;BME280;5607;48.302;14.294;2023-02-11T00:09:04;100498.56;;;-0.59;97.26
11108;BME280;5607;48.302;14.294;2023-02-11T00:11:51;100494.94;;;-0.46;97.57
11108;BME280;5607;48.302;14.294;2023-02-11T00:14:37;100499.19;;;-0.43;97.81
11108;BME280;5607;48.302;14.294;2023-02-11T00:17:24;100493.97;;;-0.39;97.13
11108;BME280;5607;48.302;14.294;2023-02-11T00:20:11;100491.50;;;-0.43;98.29
11108;BME280;5607;48.302;14.294;2023-02-11T00:22:57;100495.06;;;-0.53;99.25
11108;BME280;5607;48.302;14.294;2023-02-11T00:25:44;100493.56;;;-0.68;99.91
11108;BME280;5607;48.302;14.294;2023-02-11T00:28:31;100485.13;;;-0.78;100.00
11108;BME280;5607;48.302;14.294;2023-02-11T00:31:18;100494.50;;;-0.74;100.00
11108;BME280;5607;48.302;14.294;2023-02-11T00:34:05;100484.13;;;-0.66;100.00
11108;BME280;5607;48.302;14.294;2023-02-11T00:36:52;100495.94;;;-0.55;99.92
11108;BME280;5607;48.302;14.294;2023-02-11T00:39:40;100488.59;;;-0.80;100.00
11108;BME280;5607;48.302;14.294;2023-02-11T00:42:26;100485.06;;;-0.72;100.00
11108;BME280;5607;48.302;14.294;2023-02-11T00:45:13;100485.16;;;-0.79;100.00
11108;BME280;5607;48.302;14.294;2023-02-11T00:47:59;100488.03;;;-1.04;100.00
11108;BME280;5607;48.302;14.294;2023-02-11T00:50:48;100490.44;;;-0.92;100.00
11108;BME280;5607;48.302;14.294;2023-02-11T00:53:35;100482.09;;;-1.08;100.00
11108;BME280;5607;48.302;14.294;2023-02-11T00:56:21;100494.91;;;-1.08;100.00
11108;BME280;5607;48.302;14.294;2023-02-11T00:59:08;100482.88;;;-0.99;100.00
11108;BME280;5607;48.302;14.294;2023-02-11T01:01:54;100483.63;;;-0.94;100.00
11108;BME280;5607;48.302;14.294;2023-02-11T01:04:41;100484.75;;;-1.14;100.00
11108;BME280;5607;48.302;14.294;2023-02-11T01:07:28;100479.66;;;-1.17;100.00
11108;BME280;5607;48.302;14.294;2023-02-11T01:10:15;100490.28;;;-0.79;100.00
11108;BME280;5607;48.302;14.294;2023-02-11T01:13:01;100487.66;;;-0.76;99.79
11108;BME280;5607;48.302;14.294;2023-02-11T01:15:48;100484.19;;;-0.71;100.00
11108;BME280;5607;48.302;14.294;2023-02-11T01:18:35;100487.53;;;-0.66;100.00
11108;BME280;5607;48.302;14.294;2023-02-11T01:21:21;100474.13;;;-0.85;100.00
11108;BME280;5607;48.302;14.294;2023-02-11T01:24:08;100470.78;;;-0.91;100.00
11108;BME280;5607;48.302;14.294;2023-02-11T01:26:55;100473.28;;;-0.85;100.00
11108;BME280;5607;48.302;14.294;2023-02-11T01:29:42;100472.34;;;-0.81;100.00
11108;BME280;5607;48.302;14.294;2023-02-11T01:32:28;100456.56;;;-1.15;100.00
11108;BME280;5607;48.302;14.294;2023-02-11T01:35:15;100459.81;;;-1.02;100.00
11108;BME280;5607;48.302;14.294;2023-02-11T01:38:02;100454.56;;;-0.92;100.00
11108;BME280;5607;48.302;14.294;2023-02-11T01:40:51;100454.75;;;-1.07;100.00
11108;BME280;5607;48.302;14.294;2023-02-11T01:43:41;100446.25;;;-1.11;100.00
11108;BME280;5607;48.302;14.294;2023-02-11T01:46:33;100448.66;;;-0.98;100.00
11108;BME280;5607;48.302;14.294;2023-02-11T01:49:42;100443.47;;;-0.92;100.00
11108;BME280;5607;48.302;14.294;2023-02-11T01:52:38;100444.22;;;-0.87;100.00
11108;BME280;5607;48.302;14.294;2023-02-11T01:55:25;100443.47;;;-0.95;100.00
11108;BME280;5607;48.302;14.294;2023-02-11T01:58:31;100444.22;;;-0.87;100.00
11108;BME280;5607;48.302;14.294;2023-02-11T02:01:22;100442.59;;;-0.93;100.00
11108;BME280;5607;48.302;14.294;2023-02-11T02:04:12;100445.34;;;-1.05;100.00
11108;BME280;5607;48.302;14.294;2023-02-11T02:07:34;100447.56;;;-0.82;100.00
11108;BME280;5607;48.302;14.294;2023-02-11T02:10:25;100444.44;;;-1.02;100.00
11108;BME280;5607;48.302;14.294;2023-02-11T02:13:13;100438.88;;;-1.35;100.00
11108;BME280;5607;48.302;14.294;2023-02-11T02:16:13;100451.72;;;-1.37;100.00
11108;BME280;5607;48.302;14.294;2023-02-11T02:25:35;100426.03;;;-1.33;100.00
11108;BME280;5607;48.302;14.294;2023-02-11T02:35:47;100419.06;;;-1.22;100.00
11108;BME280;5607;48.302;14.294;2023-02-11T02:38:47;100407.22;;;-1.32;100.00
11108;BME280;5607;48.302;14.294;2023-02-11T02:41:36;100402.16;;;-1.36;100.00
11108;BME280;5607;48.302;14.294;2023-02-11T02:44:24;100393.72;;;-1.42;100.00
11108;BME280;5607;48.302;14.294;2023-02-11T02:47:11;100399.00;;;-1.57;100.00
11108;BME280;5607;48.302;14.294;2023-02-11T02:49:57;100414.34;;;-1.56;100.00
11108;BME280;5607;48.302;14.294;2023-02-11T02:56:06;100411.84;;;-1.62;100.00
11108;BME280;5607;48.302;14.294;2023-02-11T03:01:56;100393.72;;;-1.42;100.00
11108;BME280;5607;48.302;14.294;2023-02-11T03:04:56;100399.69;;;-1.43;100.00
11108;BME280;5607;48.302;14.294;2023-02-11T03:07:59;100396.28;;;-1.44;100.00
11108;BME280;5607;48.302;14.294;2023-02-11T03:10:49;100396.34;;;-1.50;100.00
11108;BME280;5607;48.302;14.294;2023-02-11T03:13:38;100379.38;;;-1.58;100.00
11108;BME280;5607;48.302;14.294;2023-02-11T03:16:27;100398.03;;;-1.47;100.00
11108;BME280;5607;48.302;14.294;2023-02-11T03:19:17;100395.56;;;-1.53;100.00
11108;BME280;5607;48.302;14.294;2023-02-11T03:22:26;100394.00;;;-1.67;100.00
11108;BME280;5607;48.302;14.294;2023-02-11T03:25:16;100396.44;;;-1.57;100.00
11108;BME280;5607;48.302;14.294;2023-02-11T03:28:11;100381.91;;;-1.55;100.00
11108;BME280;5607;48.302;14.294;2023-02-11T03:31:11;100379.00;;;-1.28;100.00
11108;BME280;5607;48.302;14.294;2023-02-11T03:34:09;100379.03;;;-1.31;100.00
11108;BME280;5607;48.302;14.294;2023-02-11T03:37:11;100373.41;;;-1.59;100.00
11108;BME280;5607;48.302;14.294;2023-02-11T03:42:51;100368.34;;;-1.64;100.00
11108;BME280;5607;48.302;14.294;2023-02-11T03:45:39;100366.69;;;-1.66;100.00
11108;BME280;5607;48.302;14.294;2023-02-11T03:48:36;100369.16;;;-1.60;100.00
11108;BME280;5607;48.302;14.294;2023-02-11T03:51:25;100365.00;;;-1.67;100.00
11108;BME280;5607;48.302;14.294;2023-02-11T03:54:15;100377.56;;;-1.50;100.00
11108;BME280;5607;48.302;14.294;2023-02-11T03:57:03;100372.72;;;-1.72;100.00
11108;BME280;5607;48.302;14.294;2023-02-11T03:59:51;100365.59;;;-1.48;100.00
11108;BME280;5607;48.302;14.294;2023-02-11T04:02:38;100340.16;;;-1.64;100.00
11108;BME280;5607;48.302;14.294;2023-02-11T04:05:25;100367.28;;;-1.47;100.00
11108;BME280;5607;48.302;14.294;2023-02-11T04:08:12;100374.03;;;-1.40;100.00
11108;BME280;5607;48.302;14.294;2023-02-11T04:10:59;100376.66;;;-1.46;100.00
11108;BME280;5607;48.302;14.294;2023-02-11T04:13:45;100371.50;;;-1.42;100.00
11108;BME280;5607;48.302;14.294;2023-02-11T04:16:32;100369.81;;;-1.43;100.00
11108;BME280;5607;48.302;14.294;2023-02-11T04:19:18;100369.72;;;-1.38;100.00
11108;BME280;5607;48.302;14.294;2023-02-11T04:22:06;100356.66;;;-1.20;100.00
11108;BME280;5607;48.302;14.294;2023-02-11T04:24:52;100353.97;;;-1.12;100.00
11108;BME280;5607;48.302;14.294;2023-02-11T04:27:39;100353.00;;;-1.02;100.00
11108;BME280;5607;48.302;14.294;2023-02-11T04:30:25;100346.78;;;-0.86;100.00
11108;BME280;5607;48.302;14.294;2023-02-11T04:33:12;100352.97;;;-0.99;100.00
11108;BME280;5607;48.302;14.294;2023-02-11T04:35:58;100358.09;;;-1.00;100.00
11108;BME280;5607;48.302;14.294;2023-02-11T04:38:45;100365.78;;;-0.99;100.00
11108;BME280;5607;48.302;14.294;2023-02-11T04:41:32;100368.13;;;-0.85;100.00
11108;BME280;5607;48.302;14.294;2023-02-11T04:44:18;100363.75;;;-0.78;100.00
11108;BME280;5607;48.302;14.294;2023-02-11T04:47:05;100365.53;;;-0.84;100.00
11108;BME280;5607;48.302;14.294;2023-02-11T04:49:52;100357.72;;;-0.76;100.00
11108;BME280;5607;48.302;14.294;2023-02-11T04:52:38;100351.75;;;-0.76;100.00
11108;BME280;5607;48.302;14.294;2023-02-11T04:55:25;100367.00;;;-0.67;100.00
11108;BME280;5607;48.302;14.294;2023-02-11T04:58:11;100355.91;;;-0.68;100.00
11108;BME280;5607;48.302;14.294;2023-02-11T05:01:06;100354.06;;;-0.63;100.00
11108;BME280;5607;48.302;14.294;2023-02-11T05:03:53;100366.88;;;-0.60;100.00
11108;BME280;5607;48.302;14.294;2023-02-11T05:06:39;100344.81;;;-0.71;100.00
11108;BME280;5607;48.302;14.294;2023-02-11T05:09:26;100364.97;;;-0.50;100.00
11108;BME280;5607;48.302;14.294;2023-02-11T05:12:14;100371.97;;;-0.58;100.00
11108;BME280;5607;48.302;14.294;2023-02-11T05:15:00;100369.41;;;-0.58;100.00
11108;BME280;5607;48.302;14.294;2023-02-11T05:17:47;100364.22;;;-0.55;100.00
11108;BME280;5607;48.302;14.294;2023-02-11T05:20:37;100340.09;;;-0.43;100.00
11108;BME280;5607;48.302;14.294;2023-02-11T05:23:23;100359.75;;;-0.44;100.00
11108;BME280;5607;48.302;14.294;2023-02-11T05:26:11;100354.44;;;-0.33;100.00
11108;BME280;5607;48.302;14.294;2023-02-11T05:28:58;100352.81;;;-0.37;100.00
11108;BME280;5607;48.302;14.294;2023-02-11T05:31:44;100338.25;;;-0.37;100.00
11108;BME280;5607;48.302;14.294;2023-02-11T05:34:31;100338.03;;;-0.24;100.00
11108;BME280;5607;48.302;14.294;2023-02-11T05:37:17;100338.72;;;-0.16;100.00
11108;BME280;5607;48.302;14.294;2023-02-11T05:40:04;100337.19;;;-0.27;100.00
11108;BME280;5607;48.302;14.294;2023-02-11T05:42:51;100325.25;;;-0.28;100.00
11108;BME280;5607;48.302;14.294;2023-02-11T05:45:38;100350.81;;;-0.21;100.00
11108;BME280;5607;48.302;14.294;2023-02-11T05:48:24;100363.78;;;-0.29;100.00
11108;BME280;5607;48.302;14.294;2023-02-11T05:51:11;100345.31;;;-0.49;100.00
11108;BME280;5607;48.302;14.294;2023-02-11T05:53:57;100342.88;;;-0.57;100.00
11108;BME280;5607;48.302;14.294;2023-02-11T05:56:44;100364.31;;;-0.60;100.00
11108;BME280;5607;48.302;14.294;2023-02-11T05:59:31;100344.81;;;-0.71;100.00
11108;BME280;5607;48.302;14.294;2023-02-11T06:02:17;100358.47;;;-0.69;100.00
11108;BME280;5607;48.302;14.294;2023-02-11T06:05:04;100342.09;;;-0.61;100.00
11108;BME280;5607;48.302;14.294;2023-02-11T06:07:51;100344.84;;;-0.73;100.00
11108;BME280;5607;48.302;14.294;2023-02-11T06:10:38;100342.13;;;-0.64;100.00
11108;BME280;5607;48.302;14.294;2023-02-11T06:13:24;100331.66;;;-0.51;100.00
11108;BME280;5607;48.302;14.294;2023-02-11T06:16:11;100338.19;;;-0.34;100.00
11108;BME280;5607;48.302;14.294;2023-02-11T06:18:57;100334.06;;;-0.44;100.00
11108;BME280;5607;48.302;14.294;2023-02-11T06:21:44;100324.47;;;-0.33;100.00
11108;BME280;5607;48.302;14.294;2023-02-11T06:24:31;100318.53;;;-0.35;100.00
11108;BME280;5607;48.302;14.294;2023-02-11T06:27:17;100324.41;;;-0.28;100.00
11108;BME280;5607;48.302;14.294;2023-02-11T06:30:05;100326.00;;;-0.22;100.00
11108;BME280;5607;48.302;14.294;2023-02-11T06:32:52;100320.75;;;-0.16;100.00
11108;BME280;5607;48.302;14.294;2023-02-11T06:35:39;100317.91;;;-0.03;100.00
11108;BME280;5607;48.302;14.294;2023-02-11T06:38:26;100321.28;;;-0.01;100.00
11108;BME280;5607;48.302;14.294;2023-02-11T06:41:15;100331.38;;;0.10;100.00
11108;BME280;5607;48.302;14.294;2023-02-11T06:44:02;100327.00;;;0.15;100.00
11108;BME280;5607;48.302;14.294;2023-02-11T06:46:48;100332.75;;;0.26;100.00
11108;BME280;5607;48.302;14.294;2023-02-11T06:49:35;100349.81;;;0.29;100.00
11108;BME280;5607;48.302;14.294;2023-02-11T06:52:22;100346.97;;;-0.01;100.00
11108;BME280;5607;48.302;14.294;2023-02-11T06:55:08;100353.59;;;0.11;100.00
11108;BME280;5607;48.302;14.294;2023-02-11T06:57:55;100334.75;;;0.12;100.00
11108;BME280;5607;48.302;14.294;2023-02-11T07:00:41;100352.75;;;0.11;100.00
11108;BME280;5607;48.302;14.294;2023-02-11T07:03:28;100359.78;;;0.03;100.00
11108;BME280;5607;48.302;14.294;2023-02-11T07:06:18;100347.69;;;0.06;100.00
11108;BME280;5607;48.302;14.294;2023-02-11T07:09:05;100344.97;;;0.15;100.00
11108;BME280;5607;48.302;14.294;2023-02-11T07:11:52;100355.13;;;0.21;100.00
11108;BME280;5607;48.302;14.294;2023-02-11T07:14:39;100344.69;;;0.29;100.00
11108;BME280;5607;48.302;14.294;2023-02-11T07:17:25;100341.06;;;0.39;100.00
11108;BME280;5607;48.302;14.294;2023-02-11T07:20:12;100336.63;;;0.46;100.00
11108;BME280;5607;48.302;14.294;2023-02-11T07:23:00;100339.25;;;0.43;100.00
11108;BME280;5607;48.302;14.294;2023-02-11T07:25:46;100343.81;;;0.30;100.00
11108;BME280;5607;48.302;14.294;2023-02-11T07:28:35;100344.69;;;0.29;100.00
11108;BME280;5607;48.302;14.294;2023-02-11T07:31:26;100356.53;;;0.38;100.00
11108;BME280;5607;48.302;14.294;2023-02-11T07:34:13;100361.59;;;0.41;100.00
11108;BME280;5607;48.302;14.294;2023-02-11T07:36:59;100362.38;;;0.44;100.00
11108;BME280;5607;48.302;14.294;2023-02-11T07:39:46;100352.34;;;0.31;100.00
11108;BME280;5607;48.302;14.294;2023-02-11T07:42:33;100354.16;;;0.27;100.00
11108;BME280;5607;48.302;14.294;2023-02-11T07:45:20;100356.53;;;0.36;100.00
11108;BME280;5607;48.302;14.294;2023-02-11T07:48:06;100344.56;;;0.35;100.00
11108;BME280;5607;48.302;14.294;2023-02-11T07:50:53;100312.84;;;0.36;100.00
11108;BME280;5607;48.302;14.294;2023-02-11T07:53:40;100334.84;;;0.49;100.00
11108;BME280;5607;48.302;14.294;2023-02-11T07:56:27;100315.91;;;0.53;100.00
11108;BME280;5607;48.302;14.294;2023-02-11T07:59:14;100330.78;;;0.78;100.00
11108;BME280;5607;48.302;14.294;2023-02-11T08:02:01;100338.31;;;0.87;100.00
11108;BME280;5607;48.302;14.294;2023-02-11T08:04:48;100346.44;;;1.06;100.00
11108;BME280;5607;48.302;14.294;2023-02-11T08:07:34;100337.41;;;1.24;98.97
11108;BME280;5607;48.302;14.294;2023-02-11T08:10:21;100326.81;;;1.38;98.02
11108;BME280;5607;48.302;14.294;2023-02-11T08:13:07;100336.28;;;1.35;96.71
11108;BME280;5607;48.302;14.294;2023-02-11T08:15:56;100334.53;;;1.36;95.54
11108;BME280;5607;48.302;14.294;2023-02-11T08:18:43;100338.50;;;1.15;95.78
11108;BME280;5607;48.302;14.294;2023-02-11T08:21:29;100316.84;;;1.24;96.66
11108;BME280;5607;48.302;14.294;2023-02-11T08:24:16;100304.72;;;1.29;96.87
11108;BME280;5607;48.302;14.294;2023-02-11T08:27:02;100319.03;;;1.39;95.82
11108;BME280;5607;48.302;14.294;2023-02-11T08:29:49;100330.00;;;1.12;97.29
11108;BME280;5607;48.302;14.294;2023-02-11T08:32:36;100330.00;;;1.12;97.51
11108;BME280;5607;48.302;14.294;2023-02-11T08:35:22;100333.25;;;1.20;97.75
11108;BME280;5607;48.302;14.294;2023-02-11T08:38:11;100334.50;;;1.39;96.18
11108;BME280;5607;48.302;14.294;2023-02-11T08:40:58;100312.72;;;1.17;96.06
11108;BME280;5607;48.302;14.294;2023-02-11T08:43:45;100327.00;;;0.94;98.53
11108;BME280;5607;48.302;14.294;2023-02-11T08:46:32;100327.25;;;1.19;98.30
11108;BME280;5607;48.302;14.294;2023-02-11T08:49:19;100331.13;;;1.37;96.42
11108;BME280;5607;48.302;14.294;2023-02-11T08:52:05;100338.28;;;1.58;96.53
11108;BME280;5607;48.302;14.294;2023-02-11T08:54:52;100331.34;;;1.60;95.42
11108;BME280;5607;48.302;14.294;2023-02-11T08:57:39;100332.84;;;2.02;94.61
11108;BME280;5607;48.302;14.294;2023-02-11T09:00:25;100337.25;;;2.28;92.96
11108;BME280;5607;48.302;14.294;2023-02-11T09:03:13;100323.91;;;2.45;91.00
11108;BME280;5607;48.302;14.294;2023-02-11T09:06:06;100330.41;;;2.27;90.80
11108;BME280;5607;48.302;14.294;2023-02-11T09:08:56;100332.38;;;2.19;91.28
11108;BME280;5607;48.302;14.294;2023-02-11T09:11:44;100307.53;;;1.85;92.73
11108;BME280;5607;48.302;14.294;2023-02-11T09:14:30;100342.50;;;1.61;95.56
11108;BME280;5607;48.302;14.294;2023-02-11T09:17:17;100332.00;;;2.01;94.64
11108;BME280;5607;48.302;14.294;2023-02-11T09:20:04;100330.38;;;2.28;92.84
11108;BME280;5607;48.302;14.294;2023-02-11T09:22:51;100338.66;;;2.08;94.79
11108;BME280;5607;48.302;14.294;2023-02-11T09:25:39;100342.34;;;2.31;93.45
11108;BME280;5607;48.302;14.294;2023-02-11T09:28:26;100340.13;;;2.19;94.66
11108;BME280;5607;48.302;14.294;2023-02-11T09:31:15;100342.78;;;2.45;93.07
11108;BME280;5607;48.302;14.294;2023-02-11T09:34:05;100335.84;;;2.47;92.92
11108;BME280;5607;48.302;14.294;2023-02-11T09:36:51;100313.03;;;2.63;90.70
11108;BME280;5607;48.302;14.294;2023-02-11T09:39:38;100316.94;;;2.17;90.97
11108;BME280;5607;48.302;14.294;2023-02-11T09:45:26;100322.75;;;2.25;92.04
11108;BME280;5607;48.302;14.294;2023-02-11T09:48:16;100316.28;;;2.40;91.83
11108;BME280;5607;48.302;14.294;2023-02-11T09:51:05;100323.75;;;2.49;90.75
11108;BME280;5607;48.302;14.294;2023-02-11T09:54:04;100323.81;;;2.76;89.60
11108;BME280;5607;48.302;14.294;2023-02-11T09:56:53;100329.41;;;2.62;90.09
11108;BME280;5607;48.302;14.294;2023-02-11T09:59:39;100324.25;;;2.62;89.94
11108;BME280;5607;48.302;14.294;2023-02-11T10:02:35;100312.56;;;2.78;88.07
11108;BME280;5607;48.302;14.294;2023-02-11T10:09:17;100317.44;;;2.87;88.14
11108;BME280;5607;48.302;14.294;2023-02-11T10:18:38;100327.50;;;2.95;87.79
11108;BME280;5607;48.302;14.294;2023-02-11T10:21:31;100335.78;;;3.06;87.48
11108;BME280;5607;48.302;14.294;2023-02-11T10:24:21;100339.47;;;2.10;90.77
11108;BME280;5607;48.302;14.294;2023-02-11T10:27:18;100325.53;;;2.18;90.98
11108;BME280;5607;48.302;14.294;2023-02-11T10:30:15;100320.59;;;2.69;89.95
11108;BME280;5607;48.302;14.294;2023-02-11T10:33:17;100320.16;;;2.83;88.15
11108;BME280;5607;48.302;14.294;2023-02-11T10:36:05;100313.38;;;2.79;88.64
11108;BME280;5607;48.302;14.294;2023-02-11T10:38:52;100321.78;;;2.85;87.18
11108;BME280;5607;48.302;14.294;2023-02-11T10:41:43;100316.88;;;2.50;89.28
11108;BME280;5607;48.302;14.294;2023-02-11T10:44:38;100315.56;;;2.92;88.05
11108;BME280;5607;48.302;14.294;2023-02-11T10:47:32;100302.75;;;3.16;86.36
11108;BME280;5607;48.302;14.294;2023-02-11T10:50:28;100297.91;;;3.07;87.45
11108;BME280;5607;48.302;14.294;2023-02-11T10:53:17;100293.84;;;3.51;85.75
11108;BME280;5607;48.302;14.294;2023-02-11T10:56:13;100289.81;;;3.17;85.94
11108;BME280;5607;48.302;14.294;2023-02-11T11:02:29;100299.53;;;3.09;86.73
11108;BME280;5607;48.302;14.294;2023-02-11T11:05:28;100297.31;;;3.50;85.35
11108;BME280;5607;48.302;14.294;2023-02-11T11:08:16;100297.06;;;3.58;84.42
11108;BME280;5607;48.302;14.294;2023-02-11T11:11:05;100298.84;;;3.81;83.40
11108;BME280;5607;48.302;14.294;2023-02-11T11:13:58;100298.19;;;3.24;84.77
11108;BME280;5607;48.302;14.294;2023-02-11T11:16:54;100297.69;;;3.64;84.39
11108;BME280;5607;48.302;14.294;2023-02-11T11:19:41;100295.13;;;3.13;84.80
11108;BME280;5607;48.302;14.294;2023-02-11T11:22:27;100286.63;;;3.36;85.02
11108;BME280;5607;48.302;14.294;2023-02-11T11:25:27;100281.69;;;3.55;84.12
11108;BME280;5607;48.302;14.294;2023-02-11T11:28:27;100276.94;;;3.67;83.80
11108;BME280;5607;48.302;14.294;2023-02-11T11:31:24;100276.53;;;3.53;83.72
11108;BME280;5607;48.302;14.294;2023-02-11T11:34:27;100269.19;;;3.42;83.60
11108;BME280;5607;48.302;14.294;2023-02-11T11:37:28;100264.94;;;3.40;84.24
11108;BME280;5607;48.302;14.294;2023-02-11T11:45:59;100250.31;;;3.89;83.42
11108;BME280;5607;48.302;14.294;2023-02-11T11:48:49;100241.81;;;4.09;81.74
11108;BME280;5607;48.302;14.294;2023-02-11T11:51:40;100251.03;;;4.16;81.73
11108;BME280;5607;48.302;14.294;2023-02-11T11:54:29;100242.16;;;3.99;81.76
11108;BME280;5607;48.302;14.294;2023-02-11T11:57:21;100216.38;;;3.98;80.97
11108;BME280;5607;48.302;14.294;2023-02-11T12:00:20;100229.13;;;4.02;81.21
11108;BME280;5607;48.302;14.294;2023-02-11T12:09:29;100212.50;;;4.31;79.45
11108;BME280;5607;48.302;14.294;2023-02-11T12:15:44;100198.47;;;4.15;80.37
11108;BME280;5607;48.302;14.294;2023-02-11T12:25:25;100199.63;;;4.08;79.46
11108;BME280;5607;48.302;14.294;2023-02-11T12:28:30;100196.25;;;4.06;80.39
11108;BME280;5607;48.302;14.294;2023-02-11T12:38:18;100183.28;;;4.29;79.34
11108;BME280;5607;48.302;14.294;2023-02-11T12:42:08;100166.25;;;4.46;78.84
11108;BME280;5607;48.302;14.294;2023-02-11T12:45:27;100157.72;;;4.44;78.05
11108;BME280;5607;48.302;14.294;2023-02-11T12:51:15;100161.06;;;4.02;80.02
11108;BME280;5607;48.302;14.294;2023-02-11T12:54:13;100160.03;;;4.29;79.92
11108;BME280;5607;48.302;14.294;2023-02-11T12:57:12;100166.88;;;4.30;79.78
11108;BME280;5607;48.302;14.294;2023-02-11T13:00:22;100140.59;;;4.19;79.45
11108;BME280;5607;48.302;14.294;2023-02-11T13:03:24;100164.22;;;4.32;79.72
11108;BME280;5607;48.302;14.294;2023-02-11T13:06:16;100155.97;;;4.44;79.37
11108;BME280;5607;48.302;14.294;2023-02-11T13:09:11;100148.63;;;4.33;80.31
11108;BME280;5607;48.302;14.294;2023-02-11T13:12:02;100143.91;;;4.23;80.53
11108;BME280;5607;48.302;14.294;2023-02-11T13:15:15;100152.66;;;3.97;81.84
11108;BME280;5607;48.302;14.294;2023-02-11T13:18:13;100159.63;;;3.95;82.58
11108;BME280;5607;48.302;14.294;2023-02-11T13:30:23;100151.59;;;4.02;82.14
11108;BME280;5607;48.302;14.294;2023-02-11T13:38:56;100150.16;;;3.72;84.65
11108;BME280;5607;48.302;14.294;2023-02-11T13:41:43;100157.81;;;3.97;84.47
11108;BME280;5607;48.302;14.294;2023-02-11T13:44:34;100158.25;;;4.08;83.63
11108;BME280;5607;48.302;14.294;2023-02-11T13:47:31;100156.88;;;3.99;84.47
11108;BME280;5607;48.302;14.294;2023-02-11T13:50:23;100158.25;;;4.08;84.41
11108;BME280;5607;48.302;14.294;2023-02-11T13:53:10;100162.66;;;4.06;84.06
11108;BME280;5607;48.302;14.294;2023-02-11T13:56:10;100160.69;;;3.89;85.62
11108;BME280;5607;48.302;14.294;2023-02-11T13:59:00;100156.28;;;3.93;84.57
11108;BME280;5607;48.302;14.294;2023-02-11T14:19:53;100146.22;;;4.51;83.61
11108;BME280;5607;48.302;14.294;2023-02-11T14:22:46;100147.72;;;4.56;83.35
11108;BME280;5607;48.302;14.294;2023-02-11T14:25:34;100150.22;;;4.80;82.65
11108;BME280;5607;48.302;14.294;2023-02-11T14:28:25;100146.22;;;4.71;83.17
11108;BME280;5607;48.302;14.294;2023-02-11T14:31:21;100126.69;;;4.64;82.71
11108;BME280;5607;48.302;14.294;2023-02-11T14:44:03;100139.84;;;4.80;83.41
11108;BME280;5607;48.302;14.294;2023-02-11T14:46:53;100141.19;;;4.89;83.54
11108;BME280;5607;48.302;14.294;2023-02-11T14:49:40;100132.16;;;4.99;82.54
11108;BME280;5607;48.302;14.294;2023-02-11T14:52:29;100138.50;;;4.92;83.38
11108;BME280;5607;48.302;14.294;2023-02-11T14:55:30;100126.19;;;4.56;85.25
11108;BME280;5607;48.302;14.294;2023-02-11T14:58:22;100132.53;;;4.69;85.39
11108;BME280;5607;48.302;14.294;2023-02-11T15:01:33;100123.84;;;4.70;84.96
11108;BME280;5607;48.302;14.294;2023-02-11T15:04:29;100143.13;;;4.83;84.71
11108;BME280;5607;48.302;14.294;2023-02-11T15:07:16;100150.03;;;4.84;84.42
11108;BME280;5607;48.302;14.294;2023-02-11T15:10:04;100127.09;;;4.55;84.83
11108;BME280;5607;48.302;14.294;2023-02-11T15:12:50;100152.47;;;4.67;84.65
11108;BME280;5607;48.302;14.294;2023-02-11T15:15:38;100155.88;;;4.68;85.02
11108;BME280;5607;48.302;14.294;2023-02-11T15:18:34;100145.75;;;4.19;86.67
11108;BME280;5607;48.302;14.294;2023-02-11T15:21:30;100140.34;;;4.03;88.18
11108;BME280;5607;48.302;14.294;2023-02-11T15:24:23;100137.91;;;4.22;88.29
11108;BME280;5607;48.302;14.294;2023-02-11T15:27:13;100124.66;;;4.30;87.42
11108;BME280;5607;48.302;14.294;2023-02-11T15:30:01;100148.28;;;4.43;87.55
11108;BME280;5607;48.302;14.294;2023-02-11T15:35:44;100137.75;;;4.25;88.10
11108;BME280;5607;48.302;14.294;2023-02-11T15:38:31;100126.91;;;4.17;88.05
11108;BME280;5607;48.302;14.294;2023-02-11T15:41:33;100137.16;;;4.19;88.94
11108;BME280;5607;48.302;14.294;2023-02-11T15:44:31;100154.84;;;4.29;88.37
11108;BME280;5607;48.302;14.294;2023-02-11T15:47:19;100135.34;;;4.21;88.54
11108;BME280;5607;48.302;14.294;2023-02-11T15:50:21;100142.78;;;4.28;88.04
11108;BME280;5607;48.302;14.294;2023-02-11T15:53:22;100160.78;;;4.31;88.42
11108;BME280;5607;48.302;14.294;2023-02-11T15:56:34;100165.06;;;4.32;88.65
11108;BME280;5607;48.302;14.294;2023-02-11T15:59:32;100162.63;;;4.28;88.55
11108;BME280;5607;48.302;14.294;2023-02-11T16:02:32;100159.94;;;4.31;88.34
11108;BME280;5607;48.302;14.294;2023-02-11T16:08:20;100187.38;;;4.35;87.69
11108;BME280;5607;48.302;14.294;2023-02-11T16:11:28;100175.72;;;4.25;87.71
11108;BME280;5607;48.302;14.294;2023-02-11T16:14:29;100172.69;;;4.14;88.54
11108;BME280;5607;48.302;14.294;2023-02-11T16:17:23;100165.41;;;4.01;89.38
11108;BME280;5607;48.302;14.294;2023-02-11T16:20:17;100167.41;;;4.17;89.08
11108;BME280;5607;48.302;14.294;2023-02-11T16:23:06;100171.66;;;3.96;89.61
11108;BME280;5607;48.302;14.294;2023-02-11T16:26:09;100176.16;;;3.91;90.44
11108;BME280;5607;48.302;14.294;2023-02-11T16:29:06;100183.91;;;3.91;91.04
11108;BME280;5607;48.302;14.294;2023-02-11T16:32:07;100187.97;;;3.98;90.37
11108;BME280;5607;48.302;14.294;2023-02-11T16:34:56;100183.19;;;3.87;90.96
11108;BME280;5607;48.302;14.294;2023-02-11T16:37:43;100187.38;;;3.90;91.41
11108;BME280;5607;48.302;14.294;2023-02-11T16:40:30;100180.38;;;3.93;91.33
11108;BME280;5607;48.302;14.294;2023-02-11T16:43:18;100177.19;;;3.87;91.07
11108;BME280;5607;48.302;14.294;2023-02-11T16:46:05;100175.97;;;3.95;90.93
11108;BME280;5607;48.302;14.294;2023-02-11T16:48:53;100174.38;;;3.93;91.39
11108;BME280;5607;48.302;14.294;2023-02-11T16:51:40;100171.66;;;3.96;91.51